createdAt,value
2018-12-20T00:00:02.703Z,79.83
2018-12-20T00:01:10.744Z,79.93
2018-12-20T00:02:18.956Z,80.68
2018-12-20T00:03:27.103Z,79.93
2018-12-20T00:04:34.898Z,80.07
2018-12-20T00:05:42.959Z,79.88
2018-12-20T00:06:51.020Z,80.11
2018-12-20T00:07:59.070Z,79.88
2018-12-20T00:09:07.190Z,79.50
2018-12-20T00:10:15.181Z,79.69
2018-12-20T00:11:23.298Z,79.41
2018-12-20T00:12:31.409Z,78.75
2018-12-20T00:13:39.364Z,78.94
2018-12-20T00:14:47.453Z,78.65
2018-12-20T00:15:55.498Z,79.22
2018-12-20T00:17:03.506Z,78.75
2018-12-20T00:18:11.579Z,78.65
2018-12-20T00:19:19.614Z,79.17
2018-12-20T00:20:27.859Z,78.94
2018-12-20T00:21:35.706Z,79.50
2018-12-20T00:22:43.778Z,78.85
2018-12-20T00:23:51.851Z,79.13
2018-12-20T00:24:59.978Z,79.41
2018-12-20T00:26:07.951Z,78.18
2018-12-20T00:27:16.041Z,78.94
2018-12-20T00:28:24.057Z,79.03
2018-12-20T00:29:32.218Z,78.75
2018-12-20T00:30:40.239Z,77.80
2018-12-20T00:31:48.268Z,77.80
2018-12-20T00:32:56.301Z,78.18
2018-12-20T00:34:04.330Z,78.18
2018-12-20T00:35:12.537Z,78.08
2018-12-20T00:36:20.443Z,78.18
2018-12-20T00:37:28.569Z,78.18
2018-12-20T00:38:36.634Z,78.46
2018-12-20T00:39:44.653Z,78.85
2018-12-20T00:40:52.666Z,78.13
2018-12-20T00:42:00.791Z,78.85
2018-12-20T00:43:08.782Z,78.79
2018-12-20T00:44:16.816Z,79.17
2018-12-20T00:45:24.924Z,79.50
2018-12-20T00:46:32.924Z,79.74
2018-12-20T00:47:40.988Z,79.64
2018-12-20T00:48:49.108Z,79.69
2018-12-20T00:49:57.098Z,79.74
2018-12-20T00:51:05.118Z,79.55
2018-12-20T00:52:13.214Z,79.36
2018-12-20T00:53:21.285Z,78.98
2018-12-20T00:54:29.330Z,79.17
2018-12-20T00:55:37.543Z,78.98
2018-12-20T00:56:45.551Z,78.56
2018-12-20T00:57:53.482Z,78.22
2018-12-20T00:59:01.582Z,78.50
2018-12-20T01:00:09.567Z,78.41
2018-12-20T01:01:17.777Z,78.31
2018-12-20T01:02:25.718Z,77.65
2018-12-20T01:03:33.858Z,78.22
2018-12-20T01:04:41.824Z,78.46
2018-12-20T01:05:49.860Z,78.22
2018-12-20T01:06:57.914Z,78.37
2018-12-20T01:08:05.989Z,78.50
2018-12-20T01:09:14.179Z,78.88
2018-12-20T01:10:22.073Z,78.79
2018-12-20T01:11:30.129Z,78.50
2018-12-20T01:12:38.228Z,78.79
2018-12-20T01:13:46.426Z,78.41
2018-12-20T01:14:54.296Z,78.41
2018-12-20T01:16:02.518Z,78.98
2018-12-20T01:17:10.402Z,78.79
2018-12-20T01:18:18.529Z,78.88
2018-12-20T01:19:26.514Z,79.26
2018-12-20T01:20:34.572Z,78.79
2018-12-20T01:21:42.746Z,78.79
2018-12-20T01:22:50.786Z,78.88
2018-12-20T01:23:58.820Z,78.98
2018-12-20T01:25:06.954Z,79.41
2018-12-20T01:26:14.832Z,78.88
2018-12-20T01:27:22.910Z,78.98
2018-12-20T01:28:30.969Z,79.26
2018-12-20T01:29:39.051Z,80.02
2018-12-20T01:30:47.060Z,79.64
2018-12-20T01:31:55.120Z,80.21
2018-12-20T01:33:03.383Z,79.74
2018-12-20T01:34:11.449Z,79.93
2018-12-20T01:35:19.383Z,79.74
2018-12-20T01:36:27.340Z,79.17
2018-12-20T01:37:35.388Z,79.93
2018-12-20T01:38:43.477Z,79.64
2018-12-20T01:39:51.526Z,79.83
2018-12-20T01:40:59.784Z,79.45
2018-12-20T01:42:07.707Z,79.64
2018-12-20T01:43:15.835Z,79.83
2018-12-20T01:44:23.896Z,79.74
2018-12-20T01:45:31.822Z,80.30
2018-12-20T01:46:39.970Z,80.11
2018-12-20T01:47:47.950Z,80.11
2018-12-20T01:48:56.004Z,79.83
2018-12-20T01:50:04.012Z,80.11
2018-12-20T01:51:12.079Z,80.87
2018-12-20T01:52:20.255Z,80.21
2018-12-20T01:53:28.252Z,79.93
2018-12-20T01:54:36.221Z,80.02
2018-12-20T01:55:44.268Z,79.83
2018-12-20T01:56:52.314Z,79.64
2018-12-20T01:58:00.577Z,79.64
2018-12-20T01:59:08.543Z,79.83
2018-12-20T02:00:16.584Z,79.45
2018-12-20T02:01:24.578Z,79.55
2018-12-20T02:02:32.606Z,79.64
2018-12-20T02:03:40.921Z,80.02
2018-12-20T02:04:48.839Z,79.74
2018-12-20T02:05:56.771Z,79.17
2018-12-20T02:07:04.809Z,79.64
2018-12-20T02:08:12.871Z,79.45
2018-12-20T02:09:21.013Z,79.64
2018-12-20T02:10:28.987Z,79.45
2018-12-20T02:11:37.036Z,79.26
2018-12-20T02:12:45.069Z,79.74
2018-12-20T02:13:53.151Z,79.93
2018-12-20T02:15:01.693Z,79.55
2018-12-20T02:16:09.403Z,79.64
2018-12-20T02:17:17.303Z,80.30
2018-12-20T02:18:25.566Z,79.83
2018-12-20T02:19:33.416Z,80.02
2018-12-20T02:20:41.521Z,80.58
2018-12-20T02:21:49.542Z,80.21
2018-12-20T02:22:57.702Z,79.74
2018-12-20T02:24:05.612Z,80.49
2018-12-20T02:25:13.719Z,80.77
2018-12-20T02:26:21.743Z,80.68
2018-12-20T02:27:29.800Z,80.77
2018-12-20T02:28:37.848Z,80.11
2018-12-20T02:29:46.036Z,80.87
2018-12-20T02:30:54.010Z,81.34
2018-12-20T02:32:02.021Z,81.15
2018-12-20T02:33:10.075Z,81.63
2018-12-20T02:34:18.144Z,81.15
2018-12-20T02:35:26.282Z,81.63
2018-12-20T02:36:34.257Z,80.77
2018-12-20T02:37:42.309Z,81.44
2018-12-20T02:38:50.353Z,81.53
2018-12-20T02:39:58.427Z,81.06
2018-12-20T02:41:06.775Z,81.06
2018-12-20T02:42:14.697Z,81.34
2018-12-20T02:43:22.580Z,81.34
2018-12-20T02:44:30.705Z,81.15
2018-12-20T02:45:38.737Z,81.63
2018-12-20T02:46:46.762Z,81.34
2018-12-20T02:47:54.798Z,81.15
2018-12-20T02:49:03.046Z,80.77
2018-12-20T02:50:11.031Z,81.25
2018-12-20T02:51:19.151Z,80.87
2018-12-20T02:52:27.042Z,81.25
2018-12-20T02:53:35.332Z,81.06
2018-12-20T02:54:43.121Z,81.25
2018-12-20T02:55:51.175Z,81.25
2018-12-20T02:56:59.355Z,81.06
2018-12-20T02:58:07.331Z,80.58
2018-12-20T02:59:15.367Z,80.77
2018-12-20T03:00:23.648Z,80.11
2018-12-20T03:01:31.436Z,79.74
2018-12-20T03:02:39.512Z,80.11
2018-12-20T03:03:47.785Z,80.11
2018-12-20T03:04:55.599Z,79.64
2018-12-20T03:06:03.748Z,79.74
2018-12-20T03:07:11.759Z,79.93
2018-12-20T03:08:20.005Z,80.49
2018-12-20T03:09:27.830Z,80.40
2018-12-20T03:10:35.869Z,80.30
2018-12-20T03:11:44.036Z,80.77
2018-12-20T03:12:52.003Z,81.15
2018-12-20T03:14:00.285Z,80.77
2018-12-20T03:15:08.111Z,80.77
2018-12-20T03:16:16.526Z,79.93
2018-12-20T03:17:24.221Z,79.83
2018-12-20T03:18:32.290Z,79.36
2018-12-20T03:19:40.503Z,79.74
2018-12-20T03:20:48.519Z,79.55
2018-12-20T03:21:56.671Z,79.36
2018-12-20T03:23:04.492Z,79.36
2018-12-20T03:24:12.566Z,78.88
2018-12-20T03:25:20.765Z,78.98
2018-12-20T03:26:28.691Z,79.17
2018-12-20T03:27:36.731Z,79.45
2018-12-20T03:28:44.893Z,78.98
2018-12-20T03:29:52.825Z,79.17
2018-12-20T03:31:00.970Z,79.07
2018-12-20T03:32:08.935Z,78.88
2018-12-20T03:33:16.987Z,79.07
2018-12-20T03:34:25.138Z,78.79
2018-12-20T03:35:33.337Z,79.45
2018-12-20T03:36:41.556Z,78.98
2018-12-20T03:37:49.278Z,79.26
2018-12-20T03:38:57.267Z,79.26
2018-12-20T03:40:05.351Z,79.17
2018-12-20T03:41:13.382Z,78.98
2018-12-20T03:42:21.662Z,79.83
2018-12-20T03:43:29.536Z,80.11
2018-12-20T03:44:37.592Z,79.74
2018-12-20T03:45:45.700Z,80.02
2018-12-20T03:46:53.658Z,79.55
2018-12-20T03:48:01.935Z,79.64
2018-12-20T03:49:09.820Z,79.45
2018-12-20T03:50:17.959Z,79.36
2018-12-20T03:51:25.879Z,80.02
2018-12-20T03:52:34.047Z,80.40
2018-12-20T03:53:42.200Z,79.83
2018-12-20T03:54:50.128Z,79.45
2018-12-20T03:55:58.181Z,79.55
2018-12-20T03:57:06.156Z,79.93
2018-12-20T03:58:14.199Z,79.93
2018-12-20T03:59:22.256Z,80.30
2018-12-20T04:00:30.490Z,80.11
2018-12-20T04:01:38.429Z,79.74
2018-12-20T04:02:46.420Z,80.40
2018-12-20T04:03:54.473Z,80.11
2018-12-20T04:05:02.567Z,79.83
2018-12-20T04:06:10.602Z,80.02
2018-12-20T04:07:18.789Z,80.58
2018-12-20T04:08:26.821Z,81.72
2018-12-20T04:09:34.922Z,81.63
2018-12-20T04:10:42.904Z,82.01
2018-12-20T04:11:50.856Z,81.63
2018-12-20T04:12:59.060Z,81.63
2018-12-20T04:14:07.037Z,80.96
2018-12-20T04:15:15.058Z,81.53
2018-12-20T04:16:23.335Z,81.34
2018-12-20T04:17:31.272Z,81.06
2018-12-20T04:18:39.189Z,81.15
2018-12-20T04:19:47.243Z,80.58
2018-12-20T04:20:55.326Z,81.15
2018-12-20T04:22:03.611Z,80.49
2018-12-20T04:23:11.422Z,80.40
2018-12-20T04:24:19.684Z,80.58
2018-12-20T04:25:27.532Z,80.96
2018-12-20T04:26:35.909Z,81.63
2018-12-20T04:27:43.657Z,81.06
2018-12-20T04:28:51.686Z,81.25
2018-12-20T04:29:59.741Z,81.15
2018-12-20T04:31:07.862Z,81.25
2018-12-20T04:32:15.951Z,80.96
2018-12-20T04:33:23.917Z,80.87
2018-12-20T04:34:32.162Z,80.30
2018-12-20T04:35:40.138Z,80.77
2018-12-20T04:36:48.226Z,81.53
2018-12-20T04:37:56.384Z,81.15
2018-12-20T04:39:04.247Z,80.40
2018-12-20T04:40:12.229Z,80.68
2018-12-20T04:41:20.330Z,79.93
2018-12-20T04:42:28.431Z,79.45
2018-12-20T04:43:36.463Z,80.21
2018-12-20T04:44:44.626Z,79.83
2018-12-20T04:45:52.533Z,79.93
2018-12-20T04:47:00.699Z,79.55
2018-12-20T04:48:08.798Z,79.45
2018-12-20T04:49:16.682Z,79.83
2018-12-20T04:50:24.870Z,80.21
2018-12-20T04:51:32.909Z,80.21
2018-12-20T04:52:40.843Z,79.83
2018-12-20T04:53:48.916Z,80.02
2018-12-20T04:54:56.962Z,80.77
2018-12-20T04:56:05.047Z,80.49
2018-12-20T04:57:13.337Z,80.49
2018-12-20T04:58:21.197Z,80.21
2018-12-20T04:59:29.176Z,80.21
2018-12-20T05:00:37.240Z,80.58
2018-12-20T05:01:45.321Z,80.02
2018-12-20T05:02:53.325Z,79.74
2018-12-20T05:04:01.449Z,79.93
2018-12-20T05:05:09.466Z,80.58
2018-12-20T05:06:17.506Z,80.21
2018-12-20T05:07:25.572Z,80.58
2018-12-20T05:08:33.798Z,80.58
2018-12-20T05:09:41.664Z,80.68
2018-12-20T05:10:49.704Z,81.06
2018-12-20T05:11:57.936Z,81.15
2018-12-20T05:13:05.940Z,80.96
2018-12-20T05:14:13.904Z,81.06
2018-12-20T05:15:21.952Z,80.87
2018-12-20T05:16:30.395Z,81.25
2018-12-20T05:17:38.386Z,81.34
2018-12-20T05:18:46.106Z,81.34
2018-12-20T05:19:54.185Z,81.15
2018-12-20T05:21:02.405Z,81.25
2018-12-20T05:22:10.343Z,81.15
2018-12-20T05:23:18.347Z,81.53
2018-12-20T05:24:26.618Z,82.20
2018-12-20T05:25:34.478Z,83.05
2018-12-20T05:26:42.499Z,82.20
2018-12-20T05:27:50.544Z,82.20
2018-12-20T05:28:58.755Z,82.57
2018-12-20T05:30:06.827Z,82.95
2018-12-20T05:31:14.713Z,82.48
2018-12-20T05:32:22.809Z,82.95
2018-12-20T05:33:30.837Z,83.28
2018-12-20T05:34:38.882Z,82.76
2018-12-20T05:35:46.938Z,82.48
2018-12-20T05:36:55.162Z,83.66
2018-12-20T05:38:03.189Z,82.76
2018-12-20T05:39:11.178Z,82.67
2018-12-20T05:40:19.853Z,81.53
2018-12-20T05:41:27.564Z,81.25
2018-12-20T05:42:35.434Z,81.92
2018-12-20T05:43:43.824Z,81.92
2018-12-20T05:44:51.839Z,81.82
2018-12-20T05:46:04.380Z,81.72
2018-12-20T05:47:07.569Z,82.20
2018-12-20T05:48:15.521Z,81.92
2018-12-20T05:49:23.589Z,81.63
2018-12-20T05:50:31.652Z,81.34
2018-12-20T05:51:39.741Z,81.63
2018-12-20T05:52:47.853Z,81.15
2018-12-20T05:53:55.818Z,81.92
2018-12-20T05:55:03.868Z,82.39
2018-12-20T05:56:13.638Z,81.63
2018-12-20T05:57:19.992Z,82.20
2018-12-20T05:58:28.140Z,82.39
2018-12-20T05:59:36.124Z,81.63
2018-12-20T06:00:44.358Z,81.63
2018-12-20T06:01:52.458Z,81.34
2018-12-20T06:03:00.256Z,81.15
2018-12-20T06:04:08.576Z,81.25
2018-12-20T06:05:16.403Z,81.34
2018-12-20T06:06:24.670Z,81.34
2018-12-20T06:07:32.696Z,81.63
2018-12-20T06:08:40.524Z,81.06
2018-12-20T06:09:51.376Z,81.63
2018-12-20T06:10:59.176Z,81.53
2018-12-20T06:12:04.727Z,81.82
2018-12-20T06:13:12.871Z,81.82
2018-12-20T06:14:20.844Z,81.63
2018-12-20T06:15:28.864Z,81.72
2018-12-20T06:16:36.950Z,82.20
2018-12-20T06:17:44.965Z,82.29
2018-12-20T06:18:53.154Z,82.86
2018-12-20T06:20:01.286Z,83.33
2018-12-20T06:21:09.371Z,83.05
2018-12-20T06:22:17.200Z,83.05
2018-12-20T06:23:25.222Z,82.39
2018-12-20T06:24:33.327Z,82.48
2018-12-20T06:25:41.359Z,82.48
2018-12-20T06:26:49.412Z,82.39
2018-12-20T06:27:57.486Z,82.76
2018-12-20T06:29:05.502Z,83.05
2018-12-20T06:30:13.573Z,81.63
2018-12-20T06:31:21.658Z,81.15
2018-12-20T06:32:29.697Z,81.06
2018-12-20T06:33:37.750Z,81.72
2018-12-20T06:34:45.793Z,80.77
2018-12-20T06:35:53.862Z,81.63
2018-12-20T06:37:01.942Z,81.44
2018-12-20T06:38:09.961Z,81.20
2018-12-20T06:39:18.024Z,82.05
2018-12-20T06:40:26.084Z,81.44
2018-12-20T06:41:34.145Z,81.34
2018-12-20T06:42:42.189Z,82.20
2018-12-20T06:43:50.237Z,82.29
2018-12-20T06:44:58.307Z,82.67
2018-12-20T06:46:06.344Z,82.57
2018-12-20T06:47:14.407Z,82.10
2018-12-20T06:48:22.466Z,81.72
2018-12-20T06:49:30.516Z,82.29
2018-12-20T06:50:38.581Z,82.39
2018-12-20T06:51:46.625Z,81.57
2018-12-20T06:52:54.677Z,81.72
2018-12-20T06:54:02.747Z,81.92
2018-12-20T06:55:10.796Z,81.63
2018-12-20T06:56:18.858Z,81.53
2018-12-20T06:57:26.905Z,82.01
2018-12-20T06:58:34.938Z,82.10
2018-12-20T06:59:43.016Z,82.29
2018-12-20T07:00:51.072Z,82.29
2018-12-20T07:01:59.119Z,81.67
2018-12-20T07:03:07.184Z,81.63
2018-12-20T07:04:15.201Z,81.53
2018-12-20T07:05:23.290Z,82.01
2018-12-20T07:06:31.340Z,82.24
2018-12-20T07:07:39.396Z,82.24
2018-12-20T07:08:47.452Z,81.92
2018-12-20T07:09:55.495Z,81.63
2018-12-20T07:11:03.554Z,81.34
2018-12-20T07:12:11.620Z,81.15
2018-12-20T07:13:19.667Z,81.53
2018-12-20T07:14:27.725Z,80.96
2018-12-20T07:15:35.761Z,81.53
2018-12-20T07:16:43.831Z,81.34
2018-12-20T07:17:51.893Z,81.34
2018-12-20T07:18:59.937Z,81.34
2018-12-20T07:20:08.005Z,80.87
2018-12-20T07:21:16.052Z,81.72
2018-12-20T07:22:24.117Z,81.44
2018-12-20T07:23:32.170Z,81.63
2018-12-20T07:24:40.279Z,81.72
2018-12-20T07:25:48.288Z,81.34
2018-12-20T07:26:56.331Z,81.06
2018-12-20T07:28:04.390Z,79.55
2018-12-20T07:29:12.456Z,79.74
2018-12-20T07:30:20.503Z,79.55
2018-12-20T07:31:28.534Z,79.36
2018-12-20T07:32:36.602Z,79.49
2018-12-20T07:33:44.666Z,79.26
2018-12-20T07:34:52.718Z,79.49
2018-12-20T07:36:00.769Z,79.87
2018-12-20T07:37:08.954Z,79.83
2018-12-20T07:38:16.875Z,79.83
2018-12-20T07:39:24.936Z,79.93
2018-12-20T07:40:33.002Z,79.64
2018-12-20T07:41:41.043Z,79.39
2018-12-20T07:42:49.111Z,78.73
2018-12-20T07:43:57.144Z,79.77
2018-12-20T07:45:05.205Z,79.87
2018-12-20T07:46:13.281Z,80.15
2018-12-20T07:47:21.343Z,80.15
2018-12-20T07:48:32.167Z,80.25
2018-12-20T07:49:37.445Z,79.77
2018-12-20T07:50:45.479Z,80.15
2018-12-20T07:51:53.546Z,80.72
2018-12-20T07:53:01.608Z,80.25
2018-12-20T07:54:09.669Z,80.34
2018-12-20T07:55:17.724Z,80.82
2018-12-20T07:56:25.754Z,80.91
2018-12-20T07:57:33.826Z,80.53
2018-12-20T07:58:41.885Z,79.87
2018-12-20T07:59:50.020Z,79.87
2018-12-20T08:00:57.981Z,80.15
2018-12-20T08:02:06.036Z,80.91
2018-12-20T08:03:14.106Z,80.82
2018-12-20T08:04:22.150Z,80.82
2018-12-20T08:05:30.216Z,80.82
2018-12-20T08:06:38.278Z,80.91
2018-12-20T08:07:46.328Z,81.95
2018-12-20T08:08:54.383Z,81.57
2018-12-20T08:10:02.427Z,82.24
2018-12-20T08:11:10.486Z,81.57
2018-12-20T08:12:18.550Z,81.76
2018-12-20T08:13:26.613Z,82.24
2018-12-20T08:14:34.651Z,82.62
2018-12-20T08:15:42.704Z,82.52
2018-12-20T08:16:50.764Z,82.33
2018-12-20T08:17:58.857Z,83.85
2018-12-20T08:19:06.887Z,83.66
2018-12-20T08:20:14.912Z,83.47
2018-12-20T08:21:22.998Z,84.13
2018-12-20T08:22:31.037Z,84.13
2018-12-20T08:23:39.103Z,83.75
2018-12-20T08:24:47.152Z,85.17
2018-12-20T08:25:55.229Z,84.13
2018-12-20T08:27:03.294Z,83.94
2018-12-20T08:28:11.327Z,83.85
2018-12-20T08:29:19.408Z,83.94
2018-12-20T08:30:27.420Z,85.27
2018-12-20T08:31:35.477Z,84.61
2018-12-20T08:32:43.539Z,84.70
2018-12-20T08:33:51.598Z,84.23
2018-12-20T08:34:59.651Z,84.23
2018-12-20T08:36:07.713Z,85.08
2018-12-20T08:37:15.749Z,85.08
2018-12-20T08:38:23.824Z,85.41
2018-12-20T08:39:31.883Z,85.41
2018-12-20T08:40:39.970Z,85.69
2018-12-20T08:41:47.989Z,85.31
2018-12-20T08:42:56.036Z,85.78
2018-12-20T08:44:04.098Z,85.36
2018-12-20T08:45:12.177Z,85.27
2018-12-20T08:46:20.208Z,85.27
2018-12-20T08:47:28.270Z,85.55
2018-12-20T08:48:36.322Z,85.27
2018-12-20T08:49:44.383Z,85.27
2018-12-20T08:50:52.439Z,85.46
2018-12-20T08:52:00.493Z,84.55
2018-12-20T08:53:08.531Z,85.65
2018-12-20T08:54:16.615Z,85.60
2018-12-20T08:55:24.661Z,85.93
2018-12-20T08:56:32.714Z,84.70
2018-12-20T08:57:40.774Z,84.61
2018-12-20T08:58:48.817Z,85.31
2018-12-20T08:59:56.871Z,85.31
2018-12-20T09:01:04.932Z,84.70
2018-12-20T09:02:12.993Z,84.74
2018-12-20T09:03:21.053Z,86.07
2018-12-20T09:04:29.124Z,85.31
2018-12-20T09:05:37.162Z,85.31
2018-12-20T09:06:45.208Z,85.41
2018-12-20T09:07:53.271Z,85.50
2018-12-20T09:09:01.335Z,85.41
2018-12-20T09:10:09.381Z,86.07
2018-12-20T09:11:17.447Z,86.35
2018-12-20T09:12:25.490Z,87.30
2018-12-20T09:13:33.564Z,86.45
2018-12-20T09:14:41.620Z,86.55
2018-12-20T09:15:49.668Z,87.30
2018-12-20T09:17:02.802Z,87.40
2018-12-20T09:18:05.771Z,87.40
2018-12-20T09:19:13.829Z,88.63
2018-12-20T09:20:21.897Z,89.86
2018-12-20T09:21:29.947Z,89.48
2018-12-20T09:22:38.010Z,89.58
2018-12-20T09:23:46.064Z,89.67
2018-12-20T09:24:54.107Z,90.34
2018-12-20T09:26:02.167Z,90.95
2018-12-20T09:27:10.228Z,90.72
2018-12-20T09:28:18.302Z,90.81
2018-12-20T09:29:26.353Z,90.34
2018-12-20T09:30:34.392Z,90.95
2018-12-20T09:31:42.459Z,91.09
2018-12-20T09:32:50.555Z,91.00
2018-12-20T09:33:58.606Z,91.09
2018-12-20T09:35:06.622Z,90.76
2018-12-20T09:36:14.702Z,91.14
2018-12-20T09:37:22.739Z,91.71
2018-12-20T09:38:30.808Z,90.95
2018-12-20T09:39:38.861Z,91.71
2018-12-20T09:40:46.920Z,91.14
2018-12-20T09:41:54.944Z,91.61
2018-12-20T09:43:03.013Z,91.52
2018-12-20T09:44:11.079Z,91.14
2018-12-20T09:45:19.160Z,91.42
2018-12-20T09:46:27.202Z,92.09
2018-12-20T09:47:35.262Z,92.28
2018-12-20T09:48:43.307Z,92.94
2018-12-20T09:49:51.363Z,94.18
2018-12-20T09:50:59.423Z,95.22
2018-12-20T09:52:07.486Z,95.22
2018-12-20T09:53:15.530Z,95.60
2018-12-20T09:54:23.604Z,96.36
2018-12-20T09:55:31.646Z,95.50
2018-12-20T09:56:39.715Z,95.12
2018-12-20T09:57:47.781Z,96.64
2018-12-20T09:58:55.825Z,98.63
2018-12-20T10:00:03.874Z,96.73
2018-12-20T10:01:11.933Z,97.83
2018-12-20T10:02:20.023Z,98.21
2018-12-20T10:03:28.052Z,98.59
2018-12-20T10:04:36.136Z,97.45
2018-12-20T10:05:44.179Z,97.88
2018-12-20T10:06:52.230Z,97.88
2018-12-20T10:08:00.289Z,97.83
2018-12-20T10:09:08.351Z,97.17
2018-12-20T10:10:16.405Z,96.88
2018-12-20T10:11:24.465Z,97.36
2018-12-20T10:12:32.522Z,97.26
2018-12-20T10:13:40.574Z,98.21
2018-12-20T10:14:48.638Z,96.59
2018-12-20T10:15:56.698Z,96.50
2018-12-20T10:17:04.754Z,97.17
2018-12-20T10:18:12.802Z,98.40
2018-12-20T10:19:20.865Z,99.06
2018-12-20T10:20:28.928Z,98.78
2018-12-20T10:21:36.988Z,99.99
2018-12-20T10:22:45.015Z,99.99
2018-12-20T10:23:53.100Z,99.99
2018-12-20T10:25:01.175Z,99.99
2018-12-20T10:26:09.223Z,99.99
2018-12-20T10:27:17.273Z,99.99
2018-12-20T10:28:25.303Z,99.99
2018-12-20T10:29:33.390Z,99.99
2018-12-20T10:30:41.438Z,99.99
2018-12-20T10:31:49.512Z,99.99
2018-12-20T10:32:57.579Z,99.99
2018-12-20T10:34:05.606Z,99.99
2018-12-20T10:35:13.675Z,99.99
2018-12-20T10:36:21.749Z,99.99
2018-12-20T10:37:29.805Z,99.99
2018-12-20T10:38:37.856Z,99.99
2018-12-20T10:39:45.919Z,99.99
2018-12-20T10:40:53.978Z,99.99
2018-12-20T10:42:02.033Z,99.99
2018-12-20T10:43:10.092Z,99.99
2018-12-20T10:44:18.145Z,99.99
2018-12-20T10:45:26.215Z,99.99
2018-12-20T10:46:34.269Z,99.99
2018-12-20T10:47:42.344Z,99.99
2018-12-20T10:48:50.421Z,99.99
2018-12-20T10:49:58.439Z,99.99
2018-12-20T10:51:06.490Z,99.99
2018-12-20T10:52:14.591Z,99.99
2018-12-20T10:53:22.611Z,98.35
2018-12-20T10:54:30.665Z,99.21
2018-12-20T10:55:38.731Z,99.68
2018-12-20T10:56:46.782Z,99.97
2018-12-20T10:57:54.845Z,99.99
2018-12-20T10:59:02.902Z,99.99
2018-12-20T11:00:10.990Z,99.99
2018-12-20T11:01:19.031Z,99.99
2018-12-20T11:02:27.081Z,99.99
2018-12-20T11:03:35.118Z,99.99
2018-12-20T11:04:43.201Z,99.99
2018-12-20T11:05:51.252Z,99.99
2018-12-20T11:06:59.310Z,99.99
2018-12-20T11:08:07.372Z,99.99
2018-12-20T11:09:15.401Z,99.99
2018-12-20T11:10:23.490Z,99.87
2018-12-20T11:11:31.550Z,97.22
2018-12-20T11:12:39.606Z,99.99
2018-12-20T11:13:47.656Z,99.99
2018-12-20T11:14:55.684Z,99.99
2018-12-20T11:16:03.764Z,99.99
2018-12-20T11:17:11.824Z,99.99
2018-12-20T11:18:19.889Z,99.99
2018-12-20T11:19:27.938Z,99.99
2018-12-20T11:20:35.996Z,99.99
2018-12-20T11:21:45.716Z,99.99
2018-12-20T11:22:52.118Z,99.99
2018-12-20T11:24:00.189Z,99.99
2018-12-20T11:25:08.239Z,99.99
2018-12-20T11:26:16.280Z,99.99
2018-12-20T11:27:24.357Z,99.99
2018-12-20T11:28:32.411Z,99.99
2018-12-20T11:29:40.464Z,99.99
2018-12-20T11:30:48.528Z,99.99
2018-12-20T11:31:56.581Z,99.99
2018-12-20T11:33:04.644Z,99.99
2018-12-20T11:34:12.693Z,99.99
2018-12-20T11:35:20.767Z,99.99
2018-12-20T11:36:28.821Z,99.99
2018-12-20T11:37:36.874Z,99.99
2018-12-20T11:38:44.931Z,99.99
2018-12-20T11:39:59.331Z,99.99
2018-12-20T11:41:01.055Z,99.99
2018-12-20T11:42:09.110Z,99.99
2018-12-20T11:43:17.172Z,99.99
2018-12-20T11:44:25.201Z,99.99
2018-12-20T11:45:33.286Z,99.99
2018-12-20T11:46:41.356Z,99.99
2018-12-20T11:47:49.415Z,99.99
2018-12-20T11:48:57.456Z,99.99
2018-12-20T11:50:05.517Z,99.99
2018-12-20T11:51:13.574Z,99.99
2018-12-20T11:52:21.639Z,99.99
2018-12-20T11:53:29.695Z,99.99
2018-12-20T11:54:37.747Z,99.99
2018-12-20T11:55:45.783Z,99.99
2018-12-20T11:56:53.868Z,99.99
2018-12-20T11:58:01.923Z,99.99
2018-12-20T11:59:09.988Z,99.99
2018-12-20T12:00:18.030Z,99.99
2018-12-20T12:01:26.089Z,99.99
2018-12-20T12:02:34.154Z,99.99
2018-12-20T12:03:42.217Z,99.99
2018-12-20T12:04:50.269Z,99.99
2018-12-20T12:05:58.328Z,99.99
2018-12-20T12:07:06.381Z,99.99
2018-12-20T12:08:14.440Z,99.99
2018-12-20T12:09:22.506Z,99.99
2018-12-20T12:10:30.559Z,99.99
2018-12-20T12:11:38.623Z,99.99
2018-12-20T12:12:46.683Z,99.99
2018-12-20T12:13:54.741Z,99.99
2018-12-20T12:15:02.787Z,99.99
2018-12-20T12:16:10.839Z,99.99
2018-12-20T12:17:18.899Z,99.99
2018-12-20T12:18:26.962Z,99.99
2018-12-20T12:19:35.022Z,99.99
2018-12-20T12:20:43.081Z,99.99
2018-12-20T12:21:51.152Z,99.99
2018-12-20T12:22:59.202Z,99.99
2018-12-20T12:24:07.257Z,99.99
2018-12-20T12:25:15.294Z,99.99
2018-12-20T12:26:23.379Z,99.99
2018-12-20T12:27:31.436Z,99.99
2018-12-20T12:28:39.499Z,99.99
2018-12-20T12:29:47.557Z,99.99
2018-12-20T12:30:55.584Z,99.99
2018-12-20T12:32:03.670Z,99.99
2018-12-20T12:33:11.728Z,99.99
2018-12-20T12:34:19.795Z,99.99
2018-12-20T12:35:27.850Z,99.99
2018-12-20T12:36:35.930Z,99.99
2018-12-20T12:37:43.974Z,99.99
2018-12-20T12:38:52.025Z,99.99
2018-12-20T12:40:00.078Z,99.99
2018-12-20T12:41:08.147Z,99.99
2018-12-20T12:42:16.204Z,99.99
2018-12-20T12:43:24.271Z,99.99
2018-12-20T12:44:32.316Z,99.99
2018-12-20T12:45:40.381Z,99.99
2018-12-20T12:46:48.429Z,99.99
2018-12-20T12:48:03.080Z,99.99
2018-12-20T12:49:04.556Z,99.99
2018-12-20T12:50:12.609Z,99.99
2018-12-20T12:51:20.669Z,99.99
2018-12-20T12:52:28.734Z,99.99
2018-12-20T12:53:36.785Z,99.99
2018-12-20T12:54:44.833Z,99.99
2018-12-20T12:55:52.891Z,99.99
2018-12-20T12:57:00.958Z,99.99
2018-12-20T12:58:09.025Z,99.99
2018-12-20T12:59:17.094Z,99.99
2018-12-20T13:00:25.117Z,99.99
2018-12-20T13:01:33.188Z,99.99
2018-12-20T13:02:41.253Z,99.99
2018-12-20T13:03:49.310Z,99.99
2018-12-20T13:04:57.376Z,99.99
2018-12-20T13:06:05.410Z,99.99
2018-12-20T13:07:13.491Z,99.99
2018-12-20T13:08:21.542Z,99.99
2018-12-20T13:09:29.601Z,99.99
2018-12-20T13:10:37.661Z,99.99
2018-12-20T13:11:45.697Z,99.99
2018-12-20T13:12:53.774Z,99.99
2018-12-20T13:14:01.840Z,99.99
2018-12-20T13:15:09.887Z,99.99
2018-12-20T13:16:17.951Z,99.99
2018-12-20T13:17:26.002Z,99.99
2018-12-20T13:18:34.075Z,99.99
2018-12-20T13:19:42.122Z,99.99
2018-12-20T13:20:50.186Z,99.99
2018-12-20T13:21:58.255Z,99.99
2018-12-20T13:23:06.310Z,99.99
2018-12-20T13:24:14.371Z,99.99
2018-12-20T13:25:22.420Z,99.99
2018-12-20T13:26:30.478Z,99.99
2018-12-20T13:27:38.542Z,99.99
2018-12-20T13:28:46.590Z,99.99
2018-12-20T13:29:54.657Z,99.99
2018-12-20T13:31:02.714Z,99.99
2018-12-20T13:32:10.778Z,99.99
2018-12-20T13:33:18.823Z,99.99
2018-12-20T13:34:26.881Z,99.99
2018-12-20T13:35:34.941Z,99.99
2018-12-20T13:36:43.014Z,99.99
2018-12-20T13:37:51.049Z,99.99
2018-12-20T13:38:59.105Z,99.99
2018-12-20T13:40:07.165Z,99.99
2018-12-20T13:41:15.256Z,99.99
2018-12-20T13:42:23.287Z,99.99
2018-12-20T13:43:31.343Z,99.99
2018-12-20T13:44:39.406Z,99.99
2018-12-20T13:45:47.463Z,99.99
2018-12-20T13:46:55.504Z,99.99
2018-12-20T13:48:03.589Z,99.99
2018-12-20T13:49:11.640Z,99.99
2018-12-20T13:50:19.695Z,99.99
2018-12-20T13:51:27.762Z,99.99
2018-12-20T13:52:35.776Z,99.99
2018-12-20T13:53:43.884Z,99.99
2018-12-20T13:54:51.923Z,99.99
2018-12-20T13:55:59.987Z,99.99
2018-12-20T13:57:08.033Z,99.99
2018-12-20T13:58:16.081Z,99.99
2018-12-20T13:59:24.154Z,99.99
2018-12-20T14:00:32.208Z,99.99
2018-12-20T14:01:40.257Z,99.99
2018-12-20T14:02:48.328Z,99.99
2018-12-20T14:03:57.206Z,99.99
2018-12-20T14:05:04.442Z,99.99
2018-12-20T14:06:12.494Z,99.99
2018-12-20T14:07:20.546Z,99.99
2018-12-20T14:08:28.597Z,99.99
2018-12-20T14:09:36.664Z,99.99
2018-12-20T14:10:44.720Z,99.99
2018-12-20T14:11:52.787Z,99.99
2018-12-20T14:13:00.830Z,99.99
2018-12-20T14:14:08.892Z,99.99
2018-12-20T14:15:16.949Z,99.99
2018-12-20T14:16:24.997Z,99.99
2018-12-20T14:17:33.059Z,99.99
2018-12-20T14:18:41.112Z,99.99
2018-12-20T14:19:49.174Z,99.99
2018-12-20T14:20:57.241Z,99.99
2018-12-20T14:22:05.260Z,99.99
2018-12-20T14:23:13.348Z,99.99
2018-12-20T14:24:21.403Z,99.99
2018-12-20T14:25:29.485Z,99.99
2018-12-20T14:26:37.526Z,99.99
2018-12-20T14:27:45.564Z,99.99
2018-12-20T14:28:53.625Z,99.99
2018-12-20T14:30:01.690Z,99.99
2018-12-20T14:31:09.754Z,99.99
2018-12-20T14:32:17.799Z,99.99
2018-12-20T14:33:25.836Z,99.99
2018-12-20T14:34:33.921Z,99.99
2018-12-20T14:35:42.006Z,99.99